sensor_id;sensor_type;location;lat;lon;timestamp;temperature;humidity
27188;DHT22;14708;50.872;5.306;2022-07-18T00:01:59;24.70;51.70
27188;DHT22;14708;50.872;5.306;2022-07-18T00:04:26;24.70;51.60
27188;DHT22;14708;50.872;5.306;2022-07-18T00:06:54;24.70;51.70
27188;DHT22;14708;50.872;5.306;2022-07-18T00:09:20;24.70;51.70
27188;DHT22;14708;50.872;5.306;2022-07-18T00:11:48;24.70;51.70
27188;DHT22;14708;50.872;5.306;2022-07-18T00:14:13;24.70;52.20
27188;DHT22;14708;50.872;5.306;2022-07-18T00:16:39;24.70;51.80
27188;DHT22;14708;50.872;5.306;2022-07-18T00:19:05;24.70;51.70
27188;DHT22;14708;50.872;5.306;2022-07-18T00:21:31;24.70;51.80
27188;DHT22;14708;50.872;5.306;2022-07-18T00:23:57;24.70;51.90
27188;DHT22;14708;50.872;5.306;2022-07-18T00:26:23;24.70;51.80
27188;DHT22;14708;50.872;5.306;2022-07-18T00:28:48;24.70;51.90
27188;DHT22;14708;50.872;5.306;2022-07-18T00:31:14;24.70;51.90
27188;DHT22;14708;50.872;5.306;2022-07-18T00:33:39;24.70;51.70
27188;DHT22;14708;50.872;5.306;2022-07-18T00:36:05;24.70;51.80
27188;DHT22;14708;50.872;5.306;2022-07-18T00:38:31;24.70;51.80
27188;DHT22;14708;50.872;5.306;2022-07-18T00:40:57;24.60;51.70
27188;DHT22;14708;50.872;5.306;2022-07-18T00:43:22;24.60;51.70
27188;DHT22;14708;50.872;5.306;2022-07-18T00:45:49;24.70;51.70
27188;DHT22;14708;50.872;5.306;2022-07-18T00:48:15;24.60;51.80
27188;DHT22;14708;50.872;5.306;2022-07-18T00:50:42;24.60;51.60
27188;DHT22;14708;50.872;5.306;2022-07-18T00:53:09;24.60;51.80
27188;DHT22;14708;50.872;5.306;2022-07-18T00:55:38;24.60;51.80
27188;DHT22;14708;50.872;5.306;2022-07-18T00:58:03;24.60;51.90
27188;DHT22;14708;50.872;5.306;2022-07-18T01:00:29;24.60;51.80
27188;DHT22;14708;50.872;5.306;2022-07-18T01:03:14;24.60;52.00
27188;DHT22;14708;50.872;5.306;2022-07-18T01:05:39;24.60;52.00
27188;DHT22;14708;50.872;5.306;2022-07-18T01:08:05;24.60;52.00
27188;DHT22;14708;50.872;5.306;2022-07-18T01:10:31;24.60;51.90
27188;DHT22;14708;50.872;5.306;2022-07-18T01:12:57;24.60;52.00
27188;DHT22;14708;50.872;5.306;2022-07-18T01:15:22;24.60;52.00
27188;DHT22;14708;50.872;5.306;2022-07-18T01:17:48;24.60;52.10
27188;DHT22;14708;50.872;5.306;2022-07-18T01:20:15;24.60;52.00
27188;DHT22;14708;50.872;5.306;2022-07-18T01:22:41;24.60;52.20
27188;DHT22;14708;50.872;5.306;2022-07-18T01:25:08;24.60;52.20
27188;DHT22;14708;50.872;5.306;2022-07-18T01:27:35;24.60;52.20
27188;DHT22;14708;50.872;5.306;2022-07-18T01:30:00;24.60;52.20
27188;DHT22;14708;50.872;5.306;2022-07-18T01:32:26;24.60;52.20
27188;DHT22;14708;50.872;5.306;2022-07-18T01:34:52;24.50;52.20
27188;DHT22;14708;50.872;5.306;2022-07-18T01:37:18;24.50;52.20
27188;DHT22;14708;50.872;5.306;2022-07-18T01:39:45;24.50;52.70
27188;DHT22;14708;50.872;5.306;2022-07-18T01:42:12;24.50;52.20
27188;DHT22;14708;50.872;5.306;2022-07-18T01:44:38;24.50;52.20
27188;DHT22;14708;50.872;5.306;2022-07-18T01:47:06;24.50;52.20
27188;DHT22;14708;50.872;5.306;2022-07-18T01:49:33;24.50;52.20
27188;DHT22;14708;50.872;5.306;2022-07-18T01:51:59;24.50;52.20
27188;DHT22;14708;50.872;5.306;2022-07-18T01:54:27;24.50;52.20
27188;DHT22;14708;50.872;5.306;2022-07-18T01:56:53;24.50;52.10
27188;DHT22;14708;50.872;5.306;2022-07-18T01:59:19;24.50;52.20
27188;DHT22;14708;50.872;5.306;2022-07-18T02:01:44;24.50;52.20
27188;DHT22;14708;50.872;5.306;2022-07-18T02:04:10;24.50;52.10
27188;DHT22;14708;50.872;5.306;2022-07-18T02:06:36;24.50;52.10
27188;DHT22;14708;50.872;5.306;2022-07-18T02:09:03;24.50;52.20
27188;DHT22;14708;50.872;5.306;2022-07-18T02:11:29;24.50;52.20
27188;DHT22;14708;50.872;5.306;2022-07-18T02:13:56;24.50;52.10
27188;DHT22;14708;50.872;5.306;2022-07-18T02:16:21;24.50;52.20
27188;DHT22;14708;50.872;5.306;2022-07-18T02:18:47;24.50;52.20
27188;DHT22;14708;50.872;5.306;2022-07-18T02:21:13;24.50;52.10
27188;DHT22;14708;50.872;5.306;2022-07-18T02:23:42;24.50;52.70
27188;DHT22;14708;50.872;5.306;2022-07-18T02:26:09;24.50;52.30
27188;DHT22;14708;50.872;5.306;2022-07-18T02:28:35;24.50;52.20
27188;DHT22;14708;50.872;5.306;2022-07-18T02:31:00;24.50;52.20
27188;DHT22;14708;50.872;5.306;2022-07-18T02:33:26;24.40;52.10
27188;DHT22;14708;50.872;5.306;2022-07-18T02:35:51;24.40;52.10
27188;DHT22;14708;50.872;5.306;2022-07-18T02:38:17;24.40;52.00
27188;DHT22;14708;50.872;5.306;2022-07-18T02:40:43;24.40;52.10
27188;DHT22;14708;50.872;5.306;2022-07-18T02:43:09;24.40;52.20
27188;DHT22;14708;50.872;5.306;2022-07-18T02:45:35;24.40;52.00
27188;DHT22;14708;50.872;5.306;2022-07-18T02:48:00;24.50;52.20
27188;DHT22;14708;50.872;5.306;2022-07-18T02:50:26;24.40;52.10
27188;DHT22;14708;50.872;5.306;2022-07-18T02:52:52;24.40;52.20
27188;DHT22;14708;50.872;5.306;2022-07-18T02:55:18;24.40;52.20
27188;DHT22;14708;50.872;5.306;2022-07-18T02:57:44;24.40;52.20
27188;DHT22;14708;50.872;5.306;2022-07-18T03:00:13;24.40;52.30
27188;DHT22;14708;50.872;5.306;2022-07-18T03:02:41;24.40;52.30
27188;DHT22;14708;50.872;5.306;2022-07-18T03:05:07;24.40;52.10
27188;DHT22;14708;50.872;5.306;2022-07-18T03:07:33;24.40;52.10
27188;DHT22;14708;50.872;5.306;2022-07-18T03:09:59;24.40;52.10
27188;DHT22;14708;50.872;5.306;2022-07-18T03:12:25;24.40;52.00
27188;DHT22;14708;50.872;5.306;2022-07-18T03:14:51;24.40;52.20
27188;DHT22;14708;50.872;5.306;2022-07-18T03:17:16;24.40;52.10
27188;DHT22;14708;50.872;5.306;2022-07-18T03:19:42;24.40;52.10
27188;DHT22;14708;50.872;5.306;2022-07-18T03:22:07;24.40;52.10
27188;DHT22;14708;50.872;5.306;2022-07-18T03:24:33;24.40;52.20
27188;DHT22;14708;50.872;5.306;2022-07-18T03:26:59;24.40;52.20
27188;DHT22;14708;50.872;5.306;2022-07-18T03:29:25;24.40;52.20
27188;DHT22;14708;50.872;5.306;2022-07-18T03:31:51;24.40;52.10
27188;DHT22;14708;50.872;5.306;2022-07-18T03:34:18;24.40;52.20
27188;DHT22;14708;50.872;5.306;2022-07-18T03:36:44;24.30;52.10
27188;DHT22;14708;50.872;5.306;2022-07-18T03:39:10;24.40;52.30
27188;DHT22;14708;50.872;5.306;2022-07-18T03:41:37;24.40;52.20
27188;DHT22;14708;50.872;5.306;2022-07-18T03:44:03;24.40;52.30
27188;DHT22;14708;50.872;5.306;2022-07-18T03:46:29;24.30;52.30
27188;DHT22;14708;50.872;5.306;2022-07-18T03:48:55;24.30;52.40
27188;DHT22;14708;50.872;5.306;2022-07-18T03:51:21;24.40;52.40
27188;DHT22;14708;50.872;5.306;2022-07-18T03:53:51;24.30;52.40
27188;DHT22;14708;50.872;5.306;2022-07-18T03:56:17;24.30;52.30
27188;DHT22;14708;50.872;5.306;2022-07-18T03:58:43;24.30;52.30
27188;DHT22;14708;50.872;5.306;2022-07-18T04:01:09;24.30;52.30
27188;DHT22;14708;50.872;5.306;2022-07-18T04:03:35;24.30;52.20
27188;DHT22;14708;50.872;5.306;2022-07-18T04:06:00;24.30;52.50
27188;DHT22;14708;50.872;5.306;2022-07-18T04:08:26;24.30;52.50
27188;DHT22;14708;50.872;5.306;2022-07-18T04:10:52;24.30;52.40
27188;DHT22;14708;50.872;5.306;2022-07-18T04:13:18;24.30;52.40
27188;DHT22;14708;50.872;5.306;2022-07-18T04:15:43;24.30;52.30
27188;DHT22;14708;50.872;5.306;2022-07-18T04:18:09;24.30;52.40
27188;DHT22;14708;50.872;5.306;2022-07-18T04:20:35;24.30;52.50
27188;DHT22;14708;50.872;5.306;2022-07-18T04:23:03;24.30;52.40
27188;DHT22;14708;50.872;5.306;2022-07-18T04:25:37;24.30;52.40
27188;DHT22;14708;50.872;5.306;2022-07-18T04:28:03;24.30;52.40
27188;DHT22;14708;50.872;5.306;2022-07-18T04:30:29;24.30;52.30
27188;DHT22;14708;50.872;5.306;2022-07-18T04:32:55;24.30;52.30
27188;DHT22;14708;50.872;5.306;2022-07-18T04:35:22;24.30;52.40
27188;DHT22;14708;50.872;5.306;2022-07-18T04:37:51;24.30;52.40
27188;DHT22;14708;50.872;5.306;2022-07-18T04:40:20;24.30;52.50
27188;DHT22;14708;50.872;5.306;2022-07-18T04:42:46;24.30;52.50
27188;DHT22;14708;50.872;5.306;2022-07-18T04:45:12;24.30;52.30
27188;DHT22;14708;50.872;5.306;2022-07-18T04:47:38;24.30;52.40
27188;DHT22;14708;50.872;5.306;2022-07-18T04:50:05;24.30;52.40
27188;DHT22;14708;50.872;5.306;2022-07-18T04:52:41;24.30;52.40
27188;DHT22;14708;50.872;5.306;2022-07-18T04:55:08;24.30;52.30
27188;DHT22;14708;50.872;5.306;2022-07-18T04:57:34;24.40;52.20
27188;DHT22;14708;50.872;5.306;2022-07-18T05:00:03;24.40;52.30
27188;DHT22;14708;50.872;5.306;2022-07-18T05:02:29;24.50;52.30
27188;DHT22;14708;50.872;5.306;2022-07-18T05:04:54;24.50;52.10
27188;DHT22;14708;50.872;5.306;2022-07-18T05:07:20;24.50;52.20
27188;DHT22;14708;50.872;5.306;2022-07-18T05:09:46;24.50;52.00
27188;DHT22;14708;50.872;5.306;2022-07-18T05:12:18;24.60;51.90
27188;DHT22;14708;50.872;5.306;2022-07-18T05:14:49;24.60;51.90
27188;DHT22;14708;50.872;5.306;2022-07-18T05:17:14;24.60;51.80
27188;DHT22;14708;50.872;5.306;2022-07-18T05:19:40;24.70;51.90
27188;DHT22;14708;50.872;5.306;2022-07-18T05:22:05;24.70;51.70
27188;DHT22;14708;50.872;5.306;2022-07-18T05:24:31;24.70;51.70
27188;DHT22;14708;50.872;5.306;2022-07-18T05:26:56;24.70;51.80
27188;DHT22;14708;50.872;5.306;2022-07-18T05:29:22;24.70;51.70
27188;DHT22;14708;50.872;5.306;2022-07-18T05:31:48;24.80;51.80
27188;DHT22;14708;50.872;5.306;2022-07-18T05:34:13;24.80;51.90
27188;DHT22;14708;50.872;5.306;2022-07-18T05:36:39;24.80;51.70
27188;DHT22;14708;50.872;5.306;2022-07-18T05:39:04;24.80;51.70
27188;DHT22;14708;50.872;5.306;2022-07-18T05:41:30;24.80;51.80
27188;DHT22;14708;50.872;5.306;2022-07-18T05:43:56;24.90;51.90
27188;DHT22;14708;50.872;5.306;2022-07-18T05:46:21;24.90;51.80
27188;DHT22;14708;50.872;5.306;2022-07-18T05:48:47;24.90;51.80
27188;DHT22;14708;50.872;5.306;2022-07-18T05:51:13;25.00;51.90
27188;DHT22;14708;50.872;5.306;2022-07-18T05:53:41;25.00;51.80
27188;DHT22;14708;50.872;5.306;2022-07-18T05:56:06;25.00;51.80
27188;DHT22;14708;50.872;5.306;2022-07-18T05:58:33;25.00;52.60
27188;DHT22;14708;50.872;5.306;2022-07-18T06:00:58;25.00;51.80
27188;DHT22;14708;50.872;5.306;2022-07-18T06:03:24;25.10;51.70
27188;DHT22;14708;50.872;5.306;2022-07-18T06:05:50;25.10;51.70
27188;DHT22;14708;50.872;5.306;2022-07-18T06:08:15;25.10;51.60
27188;DHT22;14708;50.872;5.306;2022-07-18T06:10:41;25.10;51.60
27188;DHT22;14708;50.872;5.306;2022-07-18T06:13:07;25.20;51.60
27188;DHT22;14708;50.872;5.306;2022-07-18T06:15:32;25.20;51.50
27188;DHT22;14708;50.872;5.306;2022-07-18T06:17:58;25.30;51.50
27188;DHT22;14708;50.872;5.306;2022-07-18T06:20:24;25.30;51.40
27188;DHT22;14708;50.872;5.306;2022-07-18T06:22:49;25.30;51.30
27188;DHT22;14708;50.872;5.306;2022-07-18T06:25:15;25.30;51.60
27188;DHT22;14708;50.872;5.306;2022-07-18T06:27:41;25.30;51.40
27188;DHT22;14708;50.872;5.306;2022-07-18T06:30:07;25.40;51.60
27188;DHT22;14708;50.872;5.306;2022-07-18T06:32:35;25.40;51.50
27188;DHT22;14708;50.872;5.306;2022-07-18T06:35:00;25.50;51.30
27188;DHT22;14708;50.872;5.306;2022-07-18T06:37:26;25.50;51.40
27188;DHT22;14708;50.872;5.306;2022-07-18T06:39:59;25.60;51.20
27188;DHT22;14708;50.872;5.306;2022-07-18T06:42:24;25.70;51.20
27188;DHT22;14708;50.872;5.306;2022-07-18T06:44:51;25.70;51.10
27188;DHT22;14708;50.872;5.306;2022-07-18T06:47:16;25.70;51.10
27188;DHT22;14708;50.872;5.306;2022-07-18T06:49:42;25.70;51.20
27188;DHT22;14708;50.872;5.306;2022-07-18T06:52:07;25.70;51.00
27188;DHT22;14708;50.872;5.306;2022-07-18T06:54:37;25.70;51.10
27188;DHT22;14708;50.872;5.306;2022-07-18T06:57:04;25.80;51.30
27188;DHT22;14708;50.872;5.306;2022-07-18T06:59:33;25.80;51.10
27188;DHT22;14708;50.872;5.306;2022-07-18T07:01:59;25.80;51.20
27188;DHT22;14708;50.872;5.306;2022-07-18T07:04:25;25.80;51.10
27188;DHT22;14708;50.872;5.306;2022-07-18T07:06:50;25.70;50.00
27188;DHT22;14708;50.872;5.306;2022-07-18T07:09:16;25.60;50.50
27188;DHT22;14708;50.872;5.306;2022-07-18T07:11:42;25.50;50.70
27188;DHT22;14708;50.872;5.306;2022-07-18T07:14:07;25.40;50.20
27188;DHT22;14708;50.872;5.306;2022-07-18T07:16:33;25.50;50.60
27188;DHT22;14708;50.872;5.306;2022-07-18T07:18:58;25.40;49.90
27188;DHT22;14708;50.872;5.306;2022-07-18T07:21:24;25.40;49.90
27188;DHT22;14708;50.872;5.306;2022-07-18T07:23:49;25.40;49.60
27188;DHT22;14708;50.872;5.306;2022-07-18T07:26:15;25.30;49.60
27188;DHT22;14708;50.872;5.306;2022-07-18T07:28:41;25.20;49.20
27188;DHT22;14708;50.872;5.306;2022-07-18T07:31:07;25.30;49.90
27188;DHT22;14708;50.872;5.306;2022-07-18T07:33:33;25.20;49.70
27188;DHT22;14708;50.872;5.306;2022-07-18T07:36:00;25.30;49.90
27188;DHT22;14708;50.872;5.306;2022-07-18T07:38:25;25.30;50.20
27188;DHT22;14708;50.872;5.306;2022-07-18T07:40:54;25.30;50.20
27188;DHT22;14708;50.872;5.306;2022-07-18T07:43:20;25.30;50.10
27188;DHT22;14708;50.872;5.306;2022-07-18T07:45:47;25.30;50.30
27188;DHT22;14708;50.872;5.306;2022-07-18T07:48:14;25.30;50.00
27188;DHT22;14708;50.872;5.306;2022-07-18T07:50:40;25.20;49.90
27188;DHT22;14708;50.872;5.306;2022-07-18T07:53:06;25.20;50.00
27188;DHT22;14708;50.872;5.306;2022-07-18T07:55:32;25.20;50.40
27188;DHT22;14708;50.872;5.306;2022-07-18T07:57:57;25.20;50.20
27188;DHT22;14708;50.872;5.306;2022-07-18T08:00:23;25.20;50.30
27188;DHT22;14708;50.872;5.306;2022-07-18T08:03:00;25.20;50.30
27188;DHT22;14708;50.872;5.306;2022-07-18T08:05:32;25.20;50.40
27188;DHT22;14708;50.872;5.306;2022-07-18T08:07:58;25.20;50.40
27188;DHT22;14708;50.872;5.306;2022-07-18T08:10:25;25.20;50.30
27188;DHT22;14708;50.872;5.306;2022-07-18T08:12:51;25.20;50.50
27188;DHT22;14708;50.872;5.306;2022-07-18T08:15:17;25.20;50.30
27188;DHT22;14708;50.872;5.306;2022-07-18T08:17:43;25.20;50.70
27188;DHT22;14708;50.872;5.306;2022-07-18T08:20:10;25.20;50.90
27188;DHT22;14708;50.872;5.306;2022-07-18T08:22:51;25.20;50.80
27188;DHT22;14708;50.872;5.306;2022-07-18T08:25:19;25.20;51.10
27188;DHT22;14708;50.872;5.306;2022-07-18T08:27:44;25.20;51.10
27188;DHT22;14708;50.872;5.306;2022-07-18T08:30:10;25.20;51.10
27188;DHT22;14708;50.872;5.306;2022-07-18T08:32:36;25.30;51.30
27188;DHT22;14708;50.872;5.306;2022-07-18T08:35:01;25.30;51.30
27188;DHT22;14708;50.872;5.306;2022-07-18T08:37:27;25.30;51.20
27188;DHT22;14708;50.872;5.306;2022-07-18T08:39:52;25.30;51.20
27188;DHT22;14708;50.872;5.306;2022-07-18T08:42:20;25.30;51.50
27188;DHT22;14708;50.872;5.306;2022-07-18T08:44:48;25.30;51.10
27188;DHT22;14708;50.872;5.306;2022-07-18T08:47:17;25.30;51.00
27188;DHT22;14708;50.872;5.306;2022-07-18T08:49:43;25.30;51.10
27188;DHT22;14708;50.872;5.306;2022-07-18T08:52:09;25.30;51.20
27188;DHT22;14708;50.872;5.306;2022-07-18T08:54:36;25.30;51.20
27188;DHT22;14708;50.872;5.306;2022-07-18T08:57:02;25.30;51.30
27188;DHT22;14708;50.872;5.306;2022-07-18T08:59:27;25.30;51.20
27188;DHT22;14708;50.872;5.306;2022-07-18T09:01:53;25.30;51.10
27188;DHT22;14708;50.872;5.306;2022-07-18T09:04:38;25.20;50.80
27188;DHT22;14708;50.872;5.306;2022-07-18T09:07:05;25.30;50.90
27188;DHT22;14708;50.872;5.306;2022-07-18T09:09:35;25.30;51.20
27188;DHT22;14708;50.872;5.306;2022-07-18T09:12:06;25.30;51.30
27188;DHT22;14708;50.872;5.306;2022-07-18T09:14:37;25.20;51.30
27188;DHT22;14708;50.872;5.306;2022-07-18T09:19:31;25.30;52.10
27188;DHT22;14708;50.872;5.306;2022-07-18T09:27:48;25.30;54.40
27188;DHT22;14708;50.872;5.306;2022-07-18T09:32:46;25.30;54.60
27188;DHT22;14708;50.872;5.306;2022-07-18T09:35:24;25.30;54.60
27188;DHT22;14708;50.872;5.306;2022-07-18T09:37:57;25.40;54.80
27188;DHT22;14708;50.872;5.306;2022-07-18T09:42:56;25.30;54.70
27188;DHT22;14708;50.872;5.306;2022-07-18T09:45:33;25.40;55.00
27188;DHT22;14708;50.872;5.306;2022-07-18T09:48:11;25.40;55.10
27188;DHT22;14708;50.872;5.306;2022-07-18T09:50:58;25.40;55.10
27188;DHT22;14708;50.872;5.306;2022-07-18T09:56:11;25.40;55.30
27188;DHT22;14708;50.872;5.306;2022-07-18T09:58:49;25.30;55.90
27188;DHT22;14708;50.872;5.306;2022-07-18T10:01:15;25.30;55.10
27188;DHT22;14708;50.872;5.306;2022-07-18T10:03:41;25.50;55.70
27188;DHT22;14708;50.872;5.306;2022-07-18T10:06:07;25.50;56.10
27188;DHT22;14708;50.872;5.306;2022-07-18T10:08:34;25.60;55.70
27188;DHT22;14708;50.872;5.306;2022-07-18T10:11:05;25.70;55.80
27188;DHT22;14708;50.872;5.306;2022-07-18T10:13:32;25.70;55.80
27188;DHT22;14708;50.872;5.306;2022-07-18T10:15:58;25.70;55.70
27188;DHT22;14708;50.872;5.306;2022-07-18T10:18:29;25.70;55.70
27188;DHT22;14708;50.872;5.306;2022-07-18T10:21:13;25.70;55.60
27188;DHT22;14708;50.872;5.306;2022-07-18T10:23:43;25.70;55.60
27188;DHT22;14708;50.872;5.306;2022-07-18T10:26:23;25.70;55.70
27188;DHT22;14708;50.872;5.306;2022-07-18T10:31:24;25.70;55.30
27188;DHT22;14708;50.872;5.306;2022-07-18T10:33:51;25.70;55.40
27188;DHT22;14708;50.872;5.306;2022-07-18T10:36:19;25.70;55.60
27188;DHT22;14708;50.872;5.306;2022-07-18T10:39:11;25.70;55.60
27188;DHT22;14708;50.872;5.306;2022-07-18T10:47:05;25.80;55.60
27188;DHT22;14708;50.872;5.306;2022-07-18T10:57:36;25.80;55.00
27188;DHT22;14708;50.872;5.306;2022-07-18T11:00:10;25.80;55.00
27188;DHT22;14708;50.872;5.306;2022-07-18T11:02:40;25.80;55.00
27188;DHT22;14708;50.872;5.306;2022-07-18T11:16:28;25.80;54.50
27188;DHT22;14708;50.872;5.306;2022-07-18T11:21:33;25.90;54.30
27188;DHT22;14708;50.872;5.306;2022-07-18T11:24:03;25.90;54.40
27188;DHT22;14708;50.872;5.306;2022-07-18T11:26:29;25.90;54.20
27188;DHT22;14708;50.872;5.306;2022-07-18T11:29:00;25.90;54.10
27188;DHT22;14708;50.872;5.306;2022-07-18T11:31:27;25.90;54.20
27188;DHT22;14708;50.872;5.306;2022-07-18T11:33:55;25.90;53.90
27188;DHT22;14708;50.872;5.306;2022-07-18T11:36:30;25.90;53.90
27188;DHT22;14708;50.872;5.306;2022-07-18T11:38:58;25.90;53.90
27188;DHT22;14708;50.872;5.306;2022-07-18T11:41:25;25.90;53.80
27188;DHT22;14708;50.872;5.306;2022-07-18T11:43:53;25.90;53.90
27188;DHT22;14708;50.872;5.306;2022-07-18T11:46:21;25.90;53.80
27188;DHT22;14708;50.872;5.306;2022-07-18T11:48:49;25.90;53.80
27188;DHT22;14708;50.872;5.306;2022-07-18T11:51:22;25.80;53.80
27188;DHT22;14708;50.872;5.306;2022-07-18T11:53:50;25.80;54.20
27188;DHT22;14708;50.872;5.306;2022-07-18T11:56:17;25.70;54.20
27188;DHT22;14708;50.872;5.306;2022-07-18T11:58:44;25.70;54.30
27188;DHT22;14708;50.872;5.306;2022-07-18T12:01:11;25.60;54.30
27188;DHT22;14708;50.872;5.306;2022-07-18T12:03:39;25.60;54.40
27188;DHT22;14708;50.872;5.306;2022-07-18T12:06:19;25.50;54.20
27188;DHT22;14708;50.872;5.306;2022-07-18T12:08:48;25.60;54.50
27188;DHT22;14708;50.872;5.306;2022-07-18T12:11:25;25.60;54.50
27188;DHT22;14708;50.872;5.306;2022-07-18T12:13:53;25.60;54.40
27188;DHT22;14708;50.872;5.306;2022-07-18T12:16:25;25.50;54.40
27188;DHT22;14708;50.872;5.306;2022-07-18T12:18:57;25.60;54.40
27188;DHT22;14708;50.872;5.306;2022-07-18T12:21:23;25.60;54.50
27188;DHT22;14708;50.872;5.306;2022-07-18T12:23:49;25.60;54.20
27188;DHT22;14708;50.872;5.306;2022-07-18T12:26:31;25.60;54.10
27188;DHT22;14708;50.872;5.306;2022-07-18T12:29:09;25.60;54.50
27188;DHT22;14708;50.872;5.306;2022-07-18T12:31:42;25.60;54.60
27188;DHT22;14708;50.872;5.306;2022-07-18T12:34:13;25.60;54.40
27188;DHT22;14708;50.872;5.306;2022-07-18T12:36:52;25.60;54.70
27188;DHT22;14708;50.872;5.306;2022-07-18T12:39:30;25.60;54.40
27188;DHT22;14708;50.872;5.306;2022-07-18T12:41:56;25.70;54.30
27188;DHT22;14708;50.872;5.306;2022-07-18T12:44:23;25.80;54.00
27188;DHT22;14708;50.872;5.306;2022-07-18T12:46:49;25.80;54.00
27188;DHT22;14708;50.872;5.306;2022-07-18T12:49:15;25.90;53.70
27188;DHT22;14708;50.872;5.306;2022-07-18T12:51:40;25.90;53.60
27188;DHT22;14708;50.872;5.306;2022-07-18T12:54:06;25.80;53.30
27188;DHT22;14708;50.872;5.306;2022-07-18T12:56:31;25.80;53.20
27188;DHT22;14708;50.872;5.306;2022-07-18T12:58:57;25.80;53.50
27188;DHT22;14708;50.872;5.306;2022-07-18T13:01:23;25.90;53.40
27188;DHT22;14708;50.872;5.306;2022-07-18T13:03:48;25.90;53.10
27188;DHT22;14708;50.872;5.306;2022-07-18T13:06:14;26.00;52.80
27188;DHT22;14708;50.872;5.306;2022-07-18T13:08:40;26.00;52.60
27188;DHT22;14708;50.872;5.306;2022-07-18T13:11:06;26.00;52.50
27188;DHT22;14708;50.872;5.306;2022-07-18T13:13:31;26.10;52.40
27188;DHT22;14708;50.872;5.306;2022-07-18T13:15:57;26.10;52.30
27188;DHT22;14708;50.872;5.306;2022-07-18T13:18:23;26.10;52.10
27188;DHT22;14708;50.872;5.306;2022-07-18T13:20:49;26.10;51.90
27188;DHT22;14708;50.872;5.306;2022-07-18T13:23:15;26.10;51.80
27188;DHT22;14708;50.872;5.306;2022-07-18T13:25:41;26.10;51.70
27188;DHT22;14708;50.872;5.306;2022-07-18T13:28:07;26.10;51.70
27188;DHT22;14708;50.872;5.306;2022-07-18T13:30:33;26.10;51.60
27188;DHT22;14708;50.872;5.306;2022-07-18T13:32:58;26.10;51.50
27188;DHT22;14708;50.872;5.306;2022-07-18T13:35:24;26.10;51.60
27188;DHT22;14708;50.872;5.306;2022-07-18T13:37:50;26.10;52.20
27188;DHT22;14708;50.872;5.306;2022-07-18T13:40:16;26.10;51.60
27188;DHT22;14708;50.872;5.306;2022-07-18T13:42:42;26.20;51.70
27188;DHT22;14708;50.872;5.306;2022-07-18T13:45:08;26.20;51.70
27188;DHT22;14708;50.872;5.306;2022-07-18T13:47:34;26.20;51.60
27188;DHT22;14708;50.872;5.306;2022-07-18T13:49:59;26.20;51.50
27188;DHT22;14708;50.872;5.306;2022-07-18T13:52:25;26.20;51.50
27188;DHT22;14708;50.872;5.306;2022-07-18T13:54:51;26.20;51.50
27188;DHT22;14708;50.872;5.306;2022-07-18T13:57:20;26.20;51.40
27188;DHT22;14708;50.872;5.306;2022-07-18T13:59:45;26.20;51.90
27188;DHT22;14708;50.872;5.306;2022-07-18T14:02:11;26.20;51.20
27188;DHT22;14708;50.872;5.306;2022-07-18T14:04:37;26.20;51.20
27188;DHT22;14708;50.872;5.306;2022-07-18T14:07:02;26.20;51.10
27188;DHT22;14708;50.872;5.306;2022-07-18T14:09:28;26.30;51.20
27188;DHT22;14708;50.872;5.306;2022-07-18T14:11:53;26.30;51.10
27188;DHT22;14708;50.872;5.306;2022-07-18T14:14:19;26.30;51.00
27188;DHT22;14708;50.872;5.306;2022-07-18T14:16:45;26.30;50.80
27188;DHT22;14708;50.872;5.306;2022-07-18T14:19:10;26.30;50.90
27188;DHT22;14708;50.872;5.306;2022-07-18T14:21:36;26.30;50.70
27188;DHT22;14708;50.872;5.306;2022-07-18T14:24:01;26.30;50.80
27188;DHT22;14708;50.872;5.306;2022-07-18T14:26:27;26.30;50.70
27188;DHT22;14708;50.872;5.306;2022-07-18T14:28:53;26.40;50.90
27188;DHT22;14708;50.872;5.306;2022-07-18T14:31:19;26.30;51.10
27188;DHT22;14708;50.872;5.306;2022-07-18T14:33:44;26.20;51.10
27188;DHT22;14708;50.872;5.306;2022-07-18T14:36:10;26.10;51.50
27188;DHT22;14708;50.872;5.306;2022-07-18T14:38:36;26.10;52.00
27188;DHT22;14708;50.872;5.306;2022-07-18T14:41:01;26.20;52.00
27188;DHT22;14708;50.872;5.306;2022-07-18T14:43:27;26.20;51.70
27188;DHT22;14708;50.872;5.306;2022-07-18T14:45:53;26.30;51.90
27188;DHT22;14708;50.872;5.306;2022-07-18T14:48:18;26.30;51.80
27188;DHT22;14708;50.872;5.306;2022-07-18T14:50:44;26.40;51.80
27188;DHT22;14708;50.872;5.306;2022-07-18T14:53:09;26.40;51.80
27188;DHT22;14708;50.872;5.306;2022-07-18T14:55:39;26.40;52.00
27188;DHT22;14708;50.872;5.306;2022-07-18T14:58:05;26.50;52.00
27188;DHT22;14708;50.872;5.306;2022-07-18T15:00:31;26.40;52.00
27188;DHT22;14708;50.872;5.306;2022-07-18T15:02:56;26.50;52.10
27188;DHT22;14708;50.872;5.306;2022-07-18T15:05:22;26.50;52.30
27188;DHT22;14708;50.872;5.306;2022-07-18T15:07:47;26.50;52.30
27188;DHT22;14708;50.872;5.306;2022-07-18T15:10:13;26.50;52.80
27188;DHT22;14708;50.872;5.306;2022-07-18T15:12:39;26.60;52.90
27188;DHT22;14708;50.872;5.306;2022-07-18T15:15:06;26.50;52.90
27188;DHT22;14708;50.872;5.306;2022-07-18T15:17:33;26.50;53.00
27188;DHT22;14708;50.872;5.306;2022-07-18T15:19:58;26.60;53.20
27188;DHT22;14708;50.872;5.306;2022-07-18T15:22:24;26.60;53.30
27188;DHT22;14708;50.872;5.306;2022-07-18T15:24:50;26.60;53.10
27188;DHT22;14708;50.872;5.306;2022-07-18T15:27:15;26.60;53.40
27188;DHT22;14708;50.872;5.306;2022-07-18T15:29:41;26.60;53.30
27188;DHT22;14708;50.872;5.306;2022-07-18T15:32:07;26.70;53.30
27188;DHT22;14708;50.872;5.306;2022-07-18T15:34:36;26.60;53.20
27188;DHT22;14708;50.872;5.306;2022-07-18T15:37:03;26.60;53.50
27188;DHT22;14708;50.872;5.306;2022-07-18T15:39:29;26.70;53.50
27188;DHT22;14708;50.872;5.306;2022-07-18T15:41:58;26.70;53.50
27188;DHT22;14708;50.872;5.306;2022-07-18T15:44:24;26.70;53.40
27188;DHT22;14708;50.872;5.306;2022-07-18T15:46:49;26.70;53.40
27188;DHT22;14708;50.872;5.306;2022-07-18T15:49:15;26.80;53.10
27188;DHT22;14708;50.872;5.306;2022-07-18T15:51:41;26.80;53.40
27188;DHT22;14708;50.872;5.306;2022-07-18T15:54:08;26.80;53.50
27188;DHT22;14708;50.872;5.306;2022-07-18T15:56:34;26.80;53.20
27188;DHT22;14708;50.872;5.306;2022-07-18T15:59:00;26.80;53.20
27188;DHT22;14708;50.872;5.306;2022-07-18T16:01:25;26.80;52.90
27188;DHT22;14708;50.872;5.306;2022-07-18T16:03:51;26.90;53.00
27188;DHT22;14708;50.872;5.306;2022-07-18T16:06:16;26.90;53.30
27188;DHT22;14708;50.872;5.306;2022-07-18T16:08:42;26.90;53.30
27188;DHT22;14708;50.872;5.306;2022-07-18T16:11:08;26.90;53.20
27188;DHT22;14708;50.872;5.306;2022-07-18T16:13:33;27.00;53.20
27188;DHT22;14708;50.872;5.306;2022-07-18T16:15:59;27.00;53.30